Time;durP1;ratioP1;P1;durP2;ratioP2;P2;SDS_P1;SDS_P2;PMS_P1;PMS_P2;Temp;Humidity;BMP_temperature;BMP_pressure;BME280_temperature;BME280_humidity;BME280_pressure;Samples;Min_cycle;Max_cycle;Signal;HPM_P1;HPM_P2
2021/03/23 00:02:12;;;;;;;5.67;5.07;;;;;;;3.77;86.81;94286.22;5057268;28;20441;-74
2021/03/23 00:04:39;;;;;;;7.60;5.63;;;;;;;3.76;87.56;94291.50;5057525;28;20448;-74
2021/03/23 00:07:05;;;;;;;6.50;4.87;;;;;;;3.67;86.37;94290.34;5056901;28;20929;-74
2021/03/23 00:09:32;;;;;;;8.60;6.97;;;;;;;3.64;86.97;94287.97;5054515;28;20453;-74
2021/03/23 00:11:58;;;;;;;4.80;4.37;;;;;;;3.56;87.93;94285.91;5056655;28;20556;-74
2021/03/23 00:14:31;;;;;;;5.30;4.33;;;;;;;3.49;87.86;94292.44;5056446;28;20456;-75
2021/03/23 00:16:57;;;;;;;5.33;4.93;;;;;;;3.50;88.89;94286.31;5056884;28;20441;-75
2021/03/23 00:19:24;;;;;;;6.73;5.07;;;;;;;3.54;88.66;94289.53;5056504;28;20445;-75
2021/03/23 00:21:51;;;;;;;5.13;4.40;;;;;;;3.48;88.18;94292.56;5056432;28;20464;-75
2021/03/23 00:24:17;;;;;;;5.80;4.60;;;;;;;3.47;88.79;94296.91;5056536;28;20459;-75
2021/03/23 00:26:43;;;;;;;6.10;5.50;;;;;;;3.40;88.88;94299.06;5056287;28;20457;-74
2021/03/23 00:29:11;;;;;;;5.37;4.97;;;;;;;3.40;89.55;94299.06;5056536;28;20848;-75
2021/03/23 00:31:37;;;;;;;5.70;4.90;;;;;;;3.46;89.77;94303.00;5056127;28;20443;-75
2021/03/23 00:34:05;;;;;;;5.80;5.20;;;;;;;3.52;89.60;94310.38;5056120;28;20452;-75
2021/03/23 00:36:39;;;;;;;5.67;5.17;;;;;;;3.53;89.62;94304.28;5056386;28;20449;-75
2021/03/23 00:39:07;;;;;;;9.20;6.40;;;;;;;3.56;90.36;94306.66;5056109;28;20434;-75
2021/03/23 00:41:38;;;;;;;9.63;7.00;;;;;;;3.60;90.15;94302.91;5055941;28;20489;-76
2021/03/23 00:44:05;;;;;;;6.87;6.20;;;;;;;3.64;89.70;94309.56;5055745;28;20441;-75
2021/03/23 00:46:31;;;;;;;11.20;6.87;;;;;;;3.65;89.04;94311.22;5055900;28;20894;-75
2021/03/23 00:48:58;;;;;;;14.30;8.90;;;;;;;3.64;89.83;94306.97;5056529;28;20452;-75
2021/03/23 00:51:24;;;;;;;9.20;7.17;;;;;;;3.65;88.99;94311.22;5055216;28;20457;-76
2021/03/23 00:53:51;;;;;;;10.13;7.03;;;;;;;3.59;89.06;94313.41;5054741;28;20506;-76
2021/03/23 00:56:17;;;;;;;8.80;7.07;;;;;;;3.61;89.75;94311.53;5054670;28;20929;-76
2021/03/23 00:58:44;;;;;;;8.00;5.73;;;;;;;3.60;89.12;94326.25;5054673;28;20523;-76
2021/03/23 01:01:10;;;;;;;7.00;6.30;;;;;;;3.54;89.43;94321.50;5054652;28;20480;-76
2021/03/23 01:03:36;;;;;;;9.73;7.20;;;;;;;3.45;89.38;94327.28;5054568;28;20441;-75
2021/03/23 01:06:03;;;;;;;8.40;7.03;;;;;;;3.39;89.92;94322.50;5054758;28;20494;-75
2021/03/23 01:08:29;;;;;;;8.50;6.97;;;;;;;3.38;90.77;94324.25;5055037;28;20929;-76
2021/03/23 01:10:56;;;;;;;10.33;9.10;;;;;;;3.40;91.52;94322.38;5055010;28;20925;-76
2021/03/23 01:13:23;;;;;;;11.37;8.13;;;;;;;3.43;91.70;94321.34;5037004;28;20437;-75
2021/03/23 01:15:49;;;;;;;10.13;7.40;;;;;;;3.46;91.36;94322.91;5055741;28;20459;-75
2021/03/23 01:18:15;;;;;;;6.63;5.40;;;;;;;3.43;91.29;94316.16;5055090;28;20441;-74
2021/03/23 01:20:42;;;;;;;5.83;5.27;;;;;;;3.41;91.19;94313.69;5054795;28;20485;-75
2021/03/23 01:23:08;;;;;;;7.00;6.10;;;;;;;3.46;90.94;94321.16;5055088;28;20453;-74
2021/03/23 01:25:34;;;;;;;8.60;5.90;;;;;;;3.52;91.57;94318.16;5055150;28;20441;-75
2021/03/23 01:28:02;;;;;;;5.60;5.00;;;;;;;3.56;90.94;94308.41;5069776;28;20445;-75
2021/03/23 01:30:29;;;;;;;6.90;5.53;;;;;;;3.62;90.19;94313.19;5054748;28;20855;-75
2021/03/23 01:32:55;;;;;;;11.10;6.00;;;;;;;3.67;90.64;94309.34;5055442;28;20449;-75
2021/03/23 01:35:24;;;;;;;11.20;6.87;;;;;;;3.70;89.78;94316.91;5054585;28;20445;-74
2021/03/23 01:37:51;;;;;;;9.00;6.57;;;;;;;3.74;89.39;94318.38;5019829;28;20445;-74
2021/03/23 01:40:20;;;;;;;6.83;5.83;;;;;;;3.77;88.80;94321.72;5036008;28;20485;-74
2021/03/23 01:42:48;;;;;;;9.77;6.27;;;;;;;3.77;88.16;94321.72;5055148;28;20445;-75
2021/03/23 01:45:20;;;;;;;11.10;7.50;;;;;;;3.80;88.62;94317.16;5054599;28;20789;-74
2021/03/23 01:47:47;;;;;;;7.97;7.13;;;;;;;3.82;88.04;94325.66;5054892;28;20460;-75
2021/03/23 01:50:14;;;;;;;6.37;5.77;;;;;;;3.84;88.01;94323.78;5054914;28;20437;-75
2021/03/23 01:52:44;;;;;;;10.00;7.20;;;;;;;3.83;88.70;94321.31;5054831;28;20787;-74
2021/03/23 01:55:10;;;;;;;8.10;6.27;;;;;;;3.84;89.22;94328.16;5055066;28;20426;-74
2021/03/23 01:57:39;;;;;;;9.50;6.87;;;;;;;3.83;89.05;94327.31;5055156;28;20563;-74
2021/03/23 02:00:08;;;;;;;10.60;6.60;;;;;;;3.85;88.02;94322.84;5054342;28;20926;-75
2021/03/23 02:02:36;;;;;;;11.63;7.27;;;;;;;3.87;88.09;94327.94;5054034;28;20449;-74
2021/03/23 02:05:07;;;;;;;12.47;8.20;;;;;;;3.89;88.82;94326.06;5054383;28;20445;-75
2021/03/23 02:07:33;;;;;;;11.10;8.53;;;;;;;3.88;88.35;94324.41;5054051;28;20437;-74
2021/03/23 02:09:59;;;;;;;9.37;7.80;;;;;;;3.88;87.61;94325.25;5054235;28;20468;-75
2021/03/23 02:12:28;;;;;;;10.47;7.87;;;;;;;3.84;87.62;94333.34;5054505;28;20495;-74
2021/03/23 02:14:58;;;;;;;8.20;5.97;;;;;;;3.76;87.75;94326.09;5054756;28;20456;-75
2021/03/23 02:17:28;;;;;;;6.70;5.80;;;;;;;3.72;87.49;94327.19;5053892;28;20930;-74
2021/03/23 02:19:58;;;;;;;6.30;5.80;;;;;;;3.70;87.04;94332.50;5053913;28;20480;-74
2021/03/23 02:22:29;;;;;;;6.43;5.93;;;;;;;3.68;86.90;94329.16;5053403;28;20449;-75
2021/03/23 02:24:56;;;;;;;8.80;5.63;;;;;;;3.69;87.60;94330.00;5054495;28;20441;-74
2021/03/23 02:27:24;;;;;;;7.03;5.73;;;;;;;3.69;87.08;94330.84;5054165;28;20836;-75
2021/03/23 02:29:53;;;;;;;7.33;6.17;;;;;;;3.70;86.85;94335.09;5053912;28;20440;-75
2021/03/23 02:32:20;;;;;;;6.60;5.77;;;;;;;3.69;86.89;94330.00;5054149;28;20445;-74
2021/03/23 02:34:46;;;;;;;6.40;5.20;;;;;;;3.71;86.93;94335.91;5054164;28;20464;-75
2021/03/23 02:37:13;;;;;;;7.70;6.10;;;;;;;3.73;87.37;94336.63;5053953;28;20456;-75
2021/03/23 02:39:41;;;;;;;8.60;7.30;;;;;;;3.72;87.51;94333.22;5053912;28;20536;-74
2021/03/23 02:42:09;;;;;;;10.70;7.73;;;;;;;3.71;87.16;94339.34;5053819;28;20491;-75
2021/03/23 02:44:40;;;;;;;12.50;8.03;;;;;;;3.71;87.33;94328.97;5053340;28;20503;-75
2021/03/23 02:47:08;;;;;;;15.03;10.37;;;;;;;3.74;86.91;94335.72;5018638;28;20431;-75
2021/03/23 02:49:34;;;;;;;16.97;10.67;;;;;;;3.77;87.42;94337.28;5053669;28;20925;-74
2021/03/23 02:52:01;;;;;;;14.50;9.77;;;;;;;3.77;87.39;94338.13;5053164;28;20442;-75
2021/03/23 02:54:27;;;;;;;14.47;8.73;;;;;;;3.79;87.32;94344.03;5053147;28;20917;-75
2021/03/23 02:56:54;;;;;;;8.87;7.97;;;;;;;3.77;87.57;94335.53;5018820;28;20536;-74
2021/03/23 02:59:21;;;;;;;13.83;9.37;;;;;;;3.81;86.73;94346.53;5035118;28;20452;-75
2021/03/23 03:01:47;;;;;;;10.37;8.20;;;;;;;3.84;86.94;94346.31;5053378;28;20481;-75
2021/03/23 03:04:14;;;;;;;14.43;8.83;;;;;;;3.86;88.07;94341.84;5053625;28;20926;-75
2021/03/23 03:06:40;;;;;;;10.90;8.50;;;;;;;3.88;87.56;94342.56;5034959;28;20441;-75
2021/03/23 03:09:07;;;;;;;10.33;8.00;;;;;;;3.92;87.36;94346.63;5053251;28;20433;-75
2021/03/23 03:11:33;;;;;;;12.67;8.20;;;;;;;3.94;88.04;94349.94;5053435;28;20438;-75
2021/03/23 03:14:01;;;;;;;8.47;7.47;;;;;;;3.95;87.23;94349.00;5053196;28;20433;-75
2021/03/23 03:16:27;;;;;;;8.40;7.00;;;;;;;3.94;86.95;94347.34;5053672;28;20914;-74
2021/03/23 03:18:54;;;;;;;7.93;6.90;;;;;;;3.93;87.16;94354.31;5018265;28;20461;-74
2021/03/23 03:21:21;;;;;;;9.33;7.20;;;;;;;3.88;87.01;94346.00;5053165;28;20999;-75
2021/03/23 03:23:47;;;;;;;9.83;5.90;;;;;;;3.91;86.71;94355.34;5053368;28;20433;-75
2021/03/23 03:26:14;;;;;;;7.00;5.70;;;;;;;3.86;86.33;94360.84;5053802;28;20445;-74
2021/03/23 03:28:49;;;;;;;8.03;7.13;;;;;;;3.83;86.85;94362.81;5053132;28;20441;-75
2021/03/23 03:31:17;;;;;;;8.40;6.43;;;;;;;3.82;87.20;94366.34;5020725;28;20536;-74
2021/03/23 03:33:43;;;;;;;14.13;7.23;;;;;;;3.77;87.41;94361.47;5054576;28;20804;-74
2021/03/23 03:36:10;;;;;;;8.50;6.67;;;;;;;3.77;87.83;94360.66;5072027;28;20452;-75
2021/03/23 03:38:36;;;;;;;8.90;7.10;;;;;;;3.76;88.10;94366.75;5056914;28;20445;-74
2021/03/23 03:41:03;;;;;;;7.43;6.73;;;;;;;3.73;88.61;94362.59;5057026;28;20488;-74
2021/03/23 03:43:31;;;;;;;6.00;4.60;;;;;;;3.74;87.92;94365.06;5057318;28;20785;-75
2021/03/23 03:45:57;;;;;;;6.67;5.97;;;;;;;3.76;87.77;94371.94;5056889;28;20461;-75
2021/03/23 03:48:26;;;;;;;9.13;6.40;;;;;;;3.76;87.77;94370.19;5056888;28;20850;-74
2021/03/23 03:50:53;;;;;;;8.23;5.80;;;;;;;3.76;88.41;94377.13;5057194;28;20487;-74
2021/03/23 03:53:20;;;;;;;6.60;5.87;;;;;;;3.75;87.53;94373.69;5057481;28;20452;-75
2021/03/23 03:55:47;;;;;;;6.90;6.20;;;;;;;3.76;87.80;94374.53;5057336;28;20437;-75
2021/03/23 03:58:14;;;;;;;8.50;7.30;;;;;;;3.78;88.02;94375.28;5056809;28;20987;-75
2021/03/23 04:00:40;;;;;;;11.33;7.43;;;;;;;3.79;88.37;94362.19;5056282;28;20518;-75
2021/03/23 04:03:10;;;;;;;9.13;7.43;;;;;;;3.81;87.94;94367.28;5056964;28;20483;-75
2021/03/23 04:05:39;;;;;;;13.03;7.97;;;;;;;3.82;87.50;94369.78;5056747;28;20445;-74
2021/03/23 04:08:07;;;;;;;10.57;6.67;;;;;;;3.81;87.28;94367.28;5056767;28;20472;-75
2021/03/23 04:10:34;;;;;;;8.87;6.13;;;;;;;3.83;87.80;94373.19;5056687;28;20457;-75
2021/03/23 04:13:00;;;;;;;8.20;6.60;;;;;;;3.83;87.90;94374.03;5056014;28;20445;-74
2021/03/23 04:15:28;;;;;;;13.87;8.70;;;;;;;3.81;88.01;94375.06;5056416;28;20467;-74
2021/03/23 04:17:55;;;;;;;11.63;8.50;;;;;;;3.78;87.08;94373.50;5056964;28;20429;-74
2021/03/23 04:20:22;;;;;;;12.07;8.97;;;;;;;3.78;87.80;94377.88;5056627;28;20449;-75
2021/03/23 04:22:50;;;;;;;11.63;9.00;;;;;;;3.78;86.84;94383.06;5038509;28;20456;-75
2021/03/23 04:25:19;;;;;;;9.40;8.33;;;;;;;3.78;87.90;94385.66;5056878;28;20459;-75
2021/03/23 04:27:46;;;;;;;11.63;9.93;;;;;;;3.78;87.01;94393.44;5056078;28;20914;-75
2021/03/23 04:30:14;;;;;;;10.73;8.70;;;;;;;3.79;87.12;94398.53;5056192;28;20448;-74
2021/03/23 04:32:41;;;;;;;10.43;8.57;;;;;;;3.78;87.31;94409.84;5055741;28;20425;-74
2021/03/23 04:35:10;;;;;;;11.30;8.40;;;;;;;3.80;86.86;94404.56;5056246;28;20894;-75
2021/03/23 04:37:36;;;;;;;13.13;9.83;;;;;;;3.83;87.98;94404.34;5056245;28;20945;-74
2021/03/23 04:40:04;;;;;;;11.40;7.60;;;;;;;3.82;87.36;94418.25;5056926;28;20428;-74
2021/03/23 04:42:31;;;;;;;9.87;7.73;;;;;;;3.83;87.98;94417.31;5070844;28;20894;-75
2021/03/23 04:44:57;;;;;;;9.00;6.70;;;;;;;3.84;87.59;94418.97;5055754;28;20457;-75
2021/03/23 04:47:23;;;;;;;8.37;7.50;;;;;;;3.83;86.31;94430.28;5055600;28;20446;-75
2021/03/23 04:49:50;;;;;;;10.80;8.57;;;;;;;3.82;87.20;94421.69;5055745;28;20437;-75
2021/03/23 04:52:16;;;;;;;9.70;6.57;;;;;;;3.79;86.32;94428.84;5055652;28;20449;-74
2021/03/23 04:54:42;;;;;;;12.53;8.10;;;;;;;3.74;86.71;94424.75;5055946;28;20426;-74
2021/03/23 04:57:10;;;;;;;7.80;7.00;;;;;;;3.77;87.76;94421.16;5055540;28;20465;-77
2021/03/23 04:59:36;;;;;;;9.70;7.03;;;;;;;3.79;87.73;94428.84;5055722;28;20929;-78
2021/03/23 05:02:02;;;;;;;16.47;8.57;;;;;;;3.83;87.49;94425.94;5055532;28;20520;-77
2021/03/23 05:04:29;;;;;;;9.27;7.87;;;;;;;3.88;88.01;94430.81;5055159;28;20430;-77
2021/03/23 05:06:55;;;;;;;14.00;8.50;;;;;;;3.95;88.26;94429.47;5055640;28;20522;-77
2021/03/23 05:12:44;;;;;;;18.70;11.27;;;;;;;3.88;86.70;94439.44;5054263;28;20475;-75
2021/03/23 05:15:11;;;;;;;19.47;13.10;;;;;;;3.90;86.87;94427.19;5055767;28;20449;-75
2021/03/23 05:17:38;;;;;;;13.20;10.77;;;;;;;3.92;87.89;94430.50;5055433;28;20448;-75
2021/03/23 05:20:07;;;;;;;17.40;10.57;;;;;;;3.96;87.77;94431.13;5055154;28;20446;-76
2021/03/23 05:22:33;;;;;;;15.33;11.10;;;;;;;4.02;88.78;94428.94;5054845;28;20571;-75
2021/03/23 05:25:00;;;;;;;14.10;9.50;;;;;;;4.05;87.77;94430.53;5055236;28;20495;-75
2021/03/23 05:27:26;;;;;;;13.97;9.20;;;;;;;4.08;87.35;94438.13;5055242;28;20441;-75
2021/03/23 05:29:54;;;;;;;13.97;9.93;;;;;;;4.13;87.16;94438.63;5054623;28;20856;-76
2021/03/23 05:32:20;;;;;;;11.77;9.50;;;;;;;4.14;87.38;94435.09;5055186;28;20464;-75
2021/03/23 05:34:47;;;;;;;9.70;7.53;;;;;;;4.23;86.06;94434.47;5055097;28;20441;-75
2021/03/23 05:37:13;;;;;;;15.30;9.97;;;;;;;4.30;86.15;94440.09;5054761;28;20461;-76
2021/03/23 05:39:41;;;;;;;14.87;9.60;;;;;;;4.37;84.72;94437.94;5055083;28;20425;-76
2021/03/23 05:42:12;;;;;;;11.90;7.90;;;;;;;4.44;83.99;94442.59;5054893;28;20531;-75
2021/03/23 05:44:51;;;;;;;14.13;10.53;;;;;;;4.47;84.42;94438.94;5036282;28;20437;-75
2021/03/23 05:47:21;;;;;;;21.70;15.50;;;;;;;4.53;84.71;94448.91;5054991;28;20512;-76
2021/03/23 05:49:55;;;;;;;24.77;17.10;;;;;;;4.61;85.74;94444.84;5054748;28;20520;-76
2021/03/23 05:52:27;;;;;;;32.37;17.07;;;;;;;4.71;85.26;94446.84;5054491;28;20843;-76
2021/03/23 05:55:00;;;;;;;24.77;15.47;;;;;;;4.75;84.52;94453.47;5054945;28;20449;-76
2021/03/23 05:57:32;;;;;;;35.20;21.20;;;;;;;4.69;83.76;94457.34;5053726;28;20985;-76
2021/03/23 06:00:00;;;;;;;22.40;16.97;;;;;;;4.79;83.20;94463.56;5054777;28;20898;-76
2021/03/23 06:02:37;;;;;;;31.23;17.67;;;;;;;4.78;83.70;94469.69;5054780;28;20487;-74
2021/03/23 06:05:43;;;;;;;23.37;17.00;;;;;;;4.83;84.05;94478.00;5054549;28;20451;-75
2021/03/23 06:08:29;;;;;;;17.43;13.20;;;;;;;4.92;83.30;94479.97;4993255;28;20971;-76
2021/03/23 06:11:27;;;;;;;21.73;13.53;;;;;;;5.01;82.92;94475.06;4993505;28;20869;-76
2021/03/23 06:14:01;;;;;;;21.70;13.27;;;;;;;5.08;82.58;94478.91;4992708;28;20444;-77
2021/03/23 06:16:35;;;;;;;16.33;12.70;;;;;;;5.18;81.43;94482.50;4992898;28;20510;-75
2021/03/23 06:19:13;;;;;;;16.70;11.43;;;;;;;5.27;81.49;94487.09;4993076;28;20836;-76
2021/03/23 06:21:44;;;;;;;15.60;10.90;;;;;;;5.24;80.49;94489.91;4960299;28;20490;-77
2021/03/23 06:24:22;;;;;;;9.90;8.03;;;;;;;5.31;80.14;94491.13;4992783;28;20432;-76
2021/03/23 06:26:55;;;;;;;14.83;9.60;;;;;;;5.33;80.96;94478.00;4992332;28;20506;-78
2021/03/23 06:29:37;;;;;;;10.17;7.60;;;;;;;5.45;81.02;94490.97;4992783;28;20456;-75
2021/03/23 06:32:21;;;;;;;9.30;8.30;;;;;;;5.56;77.91;94491.03;4992606;28;20452;-76
2021/03/23 06:34:54;;;;;;;18.50;12.80;;;;;;;5.68;76.88;94501.50;4960051;28;20464;-76
2021/03/23 06:37:26;;;;;;;14.37;10.97;;;;;;;5.74;77.14;94496.69;4992486;28;20483;-75
2021/03/23 06:39:52;;;;;;;15.93;10.37;;;;;;;5.80;75.84;94495.44;4992375;28;20503;-76
2021/03/23 06:42:34;;;;;;;10.43;7.53;;;;;;;5.91;75.38;94505.91;4992210;28;20471;-76
2021/03/23 06:45:37;;;;;;;11.43;8.17;;;;;;;6.01;74.32;94512.09;5032625;28;20445;-76
2021/03/23 06:48:20;;;;;;;11.10;8.30;;;;;;;6.12;72.44;94512.19;5034983;28;20437;-76
2021/03/23 06:50:48;;;;;;;15.30;8.73;;;;;;;6.20;73.77;94512.44;4992504;28;20527;-75
2021/03/23 06:53:16;;;;;;;9.90;8.07;;;;;;;6.25;73.15;94512.09;4992270;28;20452;-76
2021/03/23 06:55:46;;;;;;;11.50;7.90;;;;;;;6.21;73.42;94514.09;4991950;28;20444;-75
2021/03/23 06:58:30;;;;;;;11.40;8.60;;;;;;;6.11;70.48;94526.13;4991761;28;20471;-76
2021/03/23 07:01:26;;;;;;;10.20;9.20;;;;;;;6.09;70.37;94525.44;4991736;28;20866;-75
2021/03/23 07:03:54;;;;;;;10.40;8.30;;;;;;;5.95;69.03;94522.97;4991868;28;20839;-76
2021/03/23 07:06:26;;;;;;;12.07;9.87;;;;;;;5.97;71.12;94526.31;4991997;28;21044;-76
2021/03/23 07:09:20;;;;;;;10.60;8.47;;;;;;;6.04;71.68;94534.50;4991590;28;20463;-76
2021/03/23 07:11:55;;;;;;;14.43;10.63;;;;;;;6.06;71.53;94541.25;4992334;28;20464;-75
2021/03/23 07:14:29;;;;;;;14.23;10.93;;;;;;;6.02;71.95;94534.59;4975152;28;20445;-75
2021/03/23 07:17:26;;;;;;;16.43;10.53;;;;;;;5.63;70.41;94537.44;4991783;28;20988;-76
2021/03/23 07:19:56;;;;;;;16.07;9.63;;;;;;;5.36;71.57;94535.84;4914821;29;20448;-75
2021/03/23 07:22:37;;;;;;;15.90;9.70;;;;;;;5.34;71.61;94532.53;4914814;29;20898;-76
2021/03/23 07:25:08;;;;;;;11.67;8.17;;;;;;;5.26;71.35;94545.25;4914701;29;20940;-76
2021/03/23 07:27:34;;;;;;;8.80;7.77;;;;;;;5.02;72.98;94544.34;4922991;28;20445;-75
2021/03/23 07:30:27;;;;;;;13.03;7.80;;;;;;;5.15;73.07;94555.53;4972104;28;20793;-76
2021/03/23 07:33:00;;;;;;;10.60;8.13;;;;;;;5.00;72.20;94544.44;4895894;29;20456;-76
2021/03/23 07:35:31;;;;;;;11.47;8.63;;;;;;;4.88;72.08;94550.47;4896363;29;20459;-75
2021/03/23 07:38:05;;;;;;;13.90;10.67;;;;;;;4.85;73.46;94553.28;4911139;29;21366;-75
2021/03/23 07:40:39;;;;;;;14.77;11.40;;;;;;;4.82;74.24;94562.13;4914667;29;20944;-76
2021/03/23 07:43:18;;;;;;;10.63;8.77;;;;;;;4.52;76.33;94558.97;4914752;29;20474;-76
2021/03/23 07:45:53;;;;;;;12.33;8.20;;;;;;;4.44;75.80;94566.44;4914555;29;20447;-76
2021/03/23 07:48:23;;;;;;;10.53;7.80;;;;;;;4.14;75.09;94567.53;4914539;29;20534;-76
2021/03/23 07:50:57;;;;;;;18.90;10.93;;;;;;;3.95;76.08;94569.63;4914748;29;20531;-76
2021/03/23 07:53:32;;;;;;;8.90;7.03;;;;;;;3.77;76.04;94568.22;4914699;29;20459;-76
2021/03/23 07:56:06;;;;;;;19.73;11.30;;;;;;;4.13;77.00;94568.47;4940742;28;20850;-76
2021/03/23 07:58:41;;;;;;;14.80;9.87;;;;;;;4.09;76.38;94566.16;4991696;28;20479;-74
2021/03/23 08:01:36;;;;;;;14.20;9.83;;;;;;;4.14;77.48;94564.94;4990944;28;20487;-75
2021/03/23 08:04:12;;;;;;;17.20;11.80;;;;;;;4.28;76.92;94567.44;4990933;28;20500;-75
2021/03/23 08:06:48;;;;;;;12.83;10.63;;;;;;;4.21;77.77;94561.00;4986778;28;20447;-75
2021/03/23 08:09:24;;;;;;;16.30;10.77;;;;;;;4.24;75.53;94570.34;5019829;28;20449;-76
2021/03/23 08:12:11;;;;;;;18.00;12.43;;;;;;;4.33;77.18;94562.78;5052373;28;20444;-75
2021/03/23 08:14:59;;;;;;;18.57;11.87;;;;;;;4.35;76.19;94568.72;5052700;28;20937;-76
2021/03/23 08:17:58;;;;;;;16.13;11.60;;;;;;;4.35;75.46;94568.72;5052881;28;20788;-76
2021/03/23 08:21:10;;;;;;;21.00;12.20;;;;;;;4.45;75.53;94576.75;4991910;28;20452;-76
2021/03/23 08:23:49;;;;;;;17.57;12.90;;;;;;;4.64;75.00;94573.75;4994594;28;20454;-76
2021/03/23 08:26:28;;;;;;;21.43;14.90;;;;;;;4.55;75.58;94571.75;4994733;28;20518;-76
2021/03/23 08:29:04;;;;;;;15.57;8.67;;;;;;;4.63;72.34;94578.13;4994810;28;20428;-76
2021/03/23 08:31:43;;;;;;;17.20;10.93;;;;;;;4.80;73.18;94574.38;4993347;28;20440;-76
2021/03/23 08:34:38;;;;;;;17.80;11.70;;;;;;;4.60;74.37;94578.31;4975144;28;20437;-75
2021/03/23 08:37:37;;;;;;;21.57;13.43;;;;;;;4.23;75.08;94573.88;4974827;28;20453;-76
2021/03/23 08:40:12;;;;;;;19.57;13.03;;;;;;;4.42;75.96;94573.50;4974929;28;20453;-75
2021/03/23 08:42:43;;;;;;;14.17;8.97;;;;;;;4.36;75.50;94561.78;4958701;28;20832;-75
2021/03/23 08:45:19;;;;;;;9.67;6.20;;;;;;;4.16;75.56;94576.03;4975142;28;20440;-76
2021/03/23 08:47:48;;;;;;;10.37;7.07;;;;;;;4.12;75.34;94571.16;4975323;28;20447;-75
2021/03/23 08:50:22;;;;;;;16.87;9.43;;;;;;;4.24;76.70;94565.97;4975105;28;20503;-75
2021/03/23 08:52:50;;;;;;;13.90;7.50;;;;;;;4.25;75.47;94572.84;4942462;28;20532;-75
2021/03/23 08:55:44;;;;;;;8.20;6.13;;;;;;;4.20;75.53;94576.69;4974698;28;20444;-75
2021/03/23 08:58:15;;;;;;;13.60;7.53;;;;;;;4.03;75.25;94564.78;4971731;28;20494;-76
2021/03/23 09:01:00;;;;;;;16.43;8.87;;;;;;;3.95;77.69;94565.28;4962171;28;20446;-76
2021/03/23 09:03:54;;;;;;;10.60;6.97;;;;;;;4.05;77.80;94568.13;4978735;28;20444;-75
2021/03/23 09:06:23;;;;;;;10.60;7.20;;;;;;;4.08;78.34;94565.34;4994170;28;20539;-75
2021/03/23 09:08:55;;;;;;;12.10;6.83;;;;;;;4.14;77.08;94570.13;4988702;28;20449;-75
2021/03/23 09:12:00;;;;;;;8.93;6.33;;;;;;;4.08;76.50;94567.94;4974724;28;20453;-75
2021/03/23 09:14:30;;;;;;;10.13;6.80;;;;;;;4.03;76.54;94569.97;4975012;28;20452;-76
2021/03/23 09:17:21;;;;;;;13.30;7.17;;;;;;;3.98;76.54;94569.44;4974469;28;20531;-75
2021/03/23 09:19:57;;;;;;;8.70;6.37;;;;;;;3.87;75.61;94564.94;4974251;28;20453;-75
2021/03/23 09:22:39;;;;;;;9.40;6.80;;;;;;;3.77;76.28;94569.06;4974326;28;20484;-76
2021/03/23 09:25:22;;;;;;;9.60;6.57;;;;;;;3.68;77.05;94567.84;4974513;28;20457;-76
2021/03/23 09:27:59;;;;;;;7.07;6.03;;;;;;;3.64;77.21;94569.00;4974690;28;20499;-76
2021/03/23 09:30:54;;;;;;;15.57;9.60;;;;;;;3.71;76.46;94572.84;4974401;28;20480;-76
2021/03/23 09:33:41;;;;;;;15.30;9.43;;;;;;;3.92;78.03;94569.84;4916694;29;20483;-75
2021/03/23 09:36:36;;;;;;;16.20;9.97;;;;;;;4.09;76.67;94576.56;4969431;28;20532;-76
2021/03/23 09:39:42;;;;;;;12.50;7.50;;;;;;;4.23;75.16;94579.91;4974232;28;20433;-76
2021/03/23 09:42:36;;;;;;;14.93;9.43;;;;;;;4.20;72.35;94574.06;4973910;28;20834;-75
2021/03/23 09:45:23;;;;;;;13.03;7.73;;;;;;;4.34;73.47;94576.63;4973757;28;20896;-76
2021/03/23 09:48:28;;;;;;;12.77;7.80;;;;;;;4.36;72.31;94577.34;4973884;28;20868;-76
2021/03/23 09:51:29;;;;;;;13.13;9.03;;;;;;;4.52;73.58;94582.34;4973782;28;20448;-76
2021/03/23 09:53:56;;;;;;;28.53;13.50;;;;;;;4.70;72.09;94583.75;4897247;29;20539;-76
2021/03/23 09:56:25;;;;;;;10.20;6.70;;;;;;;4.58;70.66;94574.97;4914910;29;20451;-76
2021/03/23 09:58:58;;;;;;;10.50;8.50;;;;;;;4.74;71.41;94586.97;4915770;29;20487;-76
2021/03/23 10:01:25;;;;;;;9.57;8.00;;;;;;;4.61;71.00;94584.34;4869134;29;20578;-76
2021/03/23 10:03:56;;;;;;;8.73;7.10;;;;;;;4.90;71.24;94583.22;4916046;29;20847;-76
2021/03/23 10:06:26;;;;;;;14.37;8.90;;;;;;;5.04;69.95;94579.69;4916312;29;20451;-76
2021/03/23 10:08:57;;;;;;;18.23;9.23;;;;;;;5.39;69.15;94590.28;4925501;28;20494;-76
2021/03/23 10:11:24;;;;;;;8.43;6.60;;;;;;;5.39;68.38;94590.28;4992542;28;20448;-76
2021/03/23 10:13:54;;;;;;;11.37;7.30;;;;;;;5.31;69.03;94579.56;4993056;28;20483;-76
2021/03/23 10:16:24;;;;;;;5.37;4.80;;;;;;;5.07;67.92;94589.06;4992778;28;20464;-76
2021/03/23 10:18:51;;;;;;;9.73;7.30;;;;;;;5.20;70.12;94582.91;4992583;28;20432;-77
2021/03/23 10:21:25;;;;;;;8.83;6.03;;;;;;;5.23;69.62;94584.47;4992767;28;20488;-75
2021/03/23 10:23:55;;;;;;;6.43;5.83;;;;;;;5.30;68.36;94588.31;4992819;28;20490;-76
2021/03/23 10:26:24;;;;;;;7.77;6.37;;;;;;;5.00;68.51;94590.41;4992332;28;20452;-75
2021/03/23 10:28:51;;;;;;;9.77;7.00;;;;;;;4.95;70.35;94588.97;4960027;28;20995;-75
2021/03/23 10:31:32;;;;;;;13.27;7.77;;;;;;;4.93;70.06;94590.00;5024967;28;20442;-76
2021/03/23 10:34:12;;;;;;;7.00;5.93;;;;;;;4.72;68.02;94596.63;5033073;28;20977;-76
2021/03/23 10:36:44;;;;;;;12.10;7.83;;;;;;;4.66;69.01;94592.69;5033052;28;20492;-76
2021/03/23 10:39:28;;;;;;;11.83;6.87;;;;;;;4.61;70.06;94592.13;5033608;28;20442;-75
2021/03/23 10:41:55;;;;;;;10.60;7.30;;;;;;;4.48;70.18;94599.09;5033095;28;20485;-75
2021/03/23 10:44:26;;;;;;;7.93;6.70;;;;;;;4.59;71.54;94599.19;5032308;28;20930;-75
2021/03/23 10:46:53;;;;;;;11.17;7.67;;;;;;;4.43;71.73;94595.97;5033206;28;20457;-76
2021/03/23 10:49:27;;;;;;;14.73;8.47;;;;;;;4.35;71.27;94605.09;5033916;28;20459;-75
2021/03/23 10:51:56;;;;;;;8.27;7.37;;;;;;;4.49;72.85;94600.75;5033719;28;20856;-76
2021/03/23 10:54:25;;;;;;;8.47;6.40;;;;;;;4.32;70.92;94597.47;5045841;28;20457;-76
2021/03/23 10:56:54;;;;;;;7.93;6.97;;;;;;;4.45;71.38;94599.28;5053523;28;20780;-76
2021/03/23 10:59:32;;;;;;;11.10;6.30;;;;;;;4.39;70.29;94599.69;5053652;28;20939;-76
2021/03/23 11:02:20;;;;;;;14.97;10.43;;;;;;;4.44;72.17;94598.47;5053528;28;20996;-76
2021/03/23 11:05:09;;;;;;;11.90;8.47;;;;;;;4.51;71.77;94604.91;5051735;28;20835;-75
2021/03/23 11:07:37;;;;;;;10.83;8.60;;;;;;;4.53;71.33;94597.84;4991783;28;20542;-77
2021/03/23 11:10:09;;;;;;;10.60;8.50;;;;;;;4.56;70.22;94602.00;4991757;28;20448;-76
2021/03/23 11:12:36;;;;;;;10.00;7.30;;;;;;;4.42;68.50;94595.13;4991955;28;20555;-75
2021/03/23 11:15:04;;;;;;;10.10;7.80;;;;;;;4.50;68.75;94600.66;4991485;28;20448;-75
2021/03/23 11:17:30;;;;;;;9.23;7.67;;;;;;;4.42;68.07;94605.53;4991798;28;20452;-76
2021/03/23 11:20:07;;;;;;;9.30;7.27;;;;;;;4.42;68.14;94599.50;4991927;28;20967;-76
2021/03/23 11:22:34;;;;;;;9.43;6.43;;;;;;;4.38;68.20;94592.84;4991952;28;20468;-76
2021/03/23 11:25:01;;;;;;;13.23;9.50;;;;;;;4.50;69.61;94598.03;4992179;28;20444;-76
2021/03/23 11:27:28;;;;;;;15.73;11.13;;;;;;;4.57;71.83;94593.28;4992010;28;20429;-76
2021/03/23 11:29:55;;;;;;;10.47;9.23;;;;;;;4.50;72.20;94594.63;4991768;28;20534;-76
2021/03/23 11:32:22;;;;;;;10.47;8.03;;;;;;;4.60;72.65;94601.69;4992085;28;20450;-76
2021/03/23 11:34:49;;;;;;;12.37;9.53;;;;;;;4.64;70.93;94597.16;4991607;28;20951;-76
2021/03/23 11:37:17;;;;;;;12.90;8.97;;;;;;;4.70;71.11;94594.13;4991796;28;20432;-75
2021/03/23 11:39:43;;;;;;;13.67;9.57;;;;;;;4.77;70.98;94595.38;4975725;28;20441;-76
2021/03/23 11:42:15;;;;;;;11.07;8.10;;;;;;;4.92;70.68;94599.56;4991724;28;20487;-76
2021/03/23 11:44:45;;;;;;;11.47;8.50;;;;;;;5.07;70.59;94592.50;5023553;28;20446;-77
2021/03/23 11:47:17;;;;;;;6.73;5.87;;;;;;;5.25;67.16;94598.22;5053699;28;20457;-77
2021/03/23 11:50:05;;;;;;;9.07;6.60;;;;;;;5.50;66.94;94590.38;5053071;28;20485;-76
2021/03/23 11:52:32;;;;;;;7.23;6.40;;;;;;;5.72;66.11;94594.88;5053126;28;20445;-76
2021/03/23 11:55:03;;;;;;;10.00;7.60;;;;;;;5.95;65.71;94595.06;5017977;28;20905;-76
2021/03/23 11:57:29;;;;;;;12.53;8.63;;;;;;;6.21;66.22;94596.63;5038008;28;20549;-77
2021/03/23 11:59:56;;;;;;;10.27;8.83;;;;;;;6.52;65.76;94593.44;5056323;28;20449;-77
2021/03/23 12:02:24;;;;;;;12.50;9.00;;;;;;;6.73;65.20;94591.03;5038179;28;20827;-76
2021/03/23 12:04:51;;;;;;;8.90;7.20;;;;;;;7.11;64.17;94589.91;5056928;28;20433;-77